Succasunna, New Jersey
Current Conditions -  °F | °C
As of 7:45 PM on Tuesday 27 Jan 2015 (Local Time) from KMMU Reporting Station
Overcast Overcast  
Wind Chill: 12°   Ceiling: 15000
Heat Index: 23°   Visibility: 10mi
Dew Point: 10°   Wind: 12mph
Humidity: 59%   Direction: 360°N
Pressure: 29.78"   Gusts: 18mph
Location:  40.87°N, 74.64°W
Report Text: KMMU 280045Z 36010G16KT 10SM FEW025 OVC150 M05/M12 A2978
Loading
Personal Weather Stations






























Interactive Weather Map New forecast layout! Learn more

10-Day Weather Forecast

Advertisements
Track Severe Weather on mobile